Time;durP1;ratioP1;P1;durP2;ratioP2;P2;SDS_P1;SDS_P2;PMS_P1;PMS_P2;Temp;Humidity;BMP_temperature;BMP_pressure;BME280_temperature;BME280_humidity;BME280_pressure;Samples;Min_cycle;Max_cycle;Signal;HPM_P1;HPM_P2
2023/06/22 00:00:47;;;;;;;1.42;1.10;;;16.50;99.90;;;;;;5089384;28;19916;-78
2023/06/22 00:03:14;;;;;;;;;;;16.40;99.90;;;;;;5072394;28;20527;-78
2023/06/22 00:05:39;;;;;;;1.17;1.08;;;16.40;99.90;;;;;;5072417;28;20057;-78
2023/06/22 00:08:05;;;;;;;1.83;1.42;;;16.50;99.90;;;;;;5072316;28;20500;-78
2023/06/22 00:10:31;;;;;;;;;;;16.40;99.90;;;;;;5089156;28;20036;-78
2023/06/22 00:12:57;;;;;;;1.42;1.02;;;16.40;99.90;;;;;;5071799;28;20473;-79
2023/06/22 00:15:22;;;;;;;;;;;16.30;99.90;;;;;;5071592;28;20043;-78
2023/06/22 00:17:49;;;;;;;1.23;1.05;;;16.30;99.90;;;;;;5088720;28;20276;-79
2023/06/22 00:20:16;;;;;;;1.30;1.17;;;16.30;99.90;;;;;;5088882;28;20382;-78
2023/06/22 00:22:42;;;;;;;1.25;1.15;;;16.20;99.90;;;;;;5088696;28;20502;-78
2023/06/22 00:25:09;;;;;;;1.38;1.20;;;16.20;99.90;;;;;;5088545;28;20066;-78
2023/06/22 00:27:35;;;;;;;1.00;0.90;;;16.20;99.90;;;;;;5055291;28;20054;-78
2023/06/22 00:30:01;;;;;;;1.25;1.08;;;16.20;99.90;;;;;;5088266;28;20675;-78
2023/06/22 00:32:27;;;;;;;1.45;1.23;;;16.10;99.90;;;;;;5071270;28;20052;-78
2023/06/22 00:34:53;;;;;;;;;;;16.20;99.90;;;;;;5087814;28;20109;-78
2023/06/22 00:37:18;;;;;;;0.95;0.90;;;16.10;99.90;;;;;;5088749;28;19923;-79
2023/06/22 00:39:44;;;;;;;;;;;16.10;99.90;;;;;;5088759;28;20055;-78
2023/06/22 00:42:09;;;;;;;1.50;1.20;;;16.10;99.90;;;;;;5071798;28;19938;-78
2023/06/22 00:44:36;;;;;;;3.33;1.20;;;16.00;99.90;;;;;;5088081;28;20047;-76
2023/06/22 00:47:02;;;;;;;1.23;1.10;;;16.10;99.90;;;;;;5072105;28;20048;-76
2023/06/22 00:49:28;;;;;;;1.65;1.20;;;16.10;99.90;;;;;;5077462;28;20052;-76
2023/06/22 00:51:55;;;;;;;1.48;1.15;;;16.00;99.90;;;;;;5091603;28;20420;-76
2023/06/22 00:54:24;;;;;;;1.10;1.00;;;16.00;99.90;;;;;;5083719;28;20055;-76
2023/06/22 00:56:59;;;;;;;2.28;1.92;;;16.00;99.90;;;;;;5092462;28;20044;-76
2023/06/22 00:59:26;;;;;;;1.60;1.48;;;15.90;99.90;;;;;;5061704;28;20047;-76
2023/06/22 01:01:52;;;;;;;1.30;1.10;;;15.80;99.90;;;;;;5105030;28;20104;-76
2023/06/22 01:04:18;;;;;;;1.40;1.23;;;15.80;99.90;;;;;;5082206;28;20039;-76
2023/06/22 01:07:16;;;;;;;1.23;1.05;;;15.80;99.90;;;;;;5092380;28;20074;-76
2023/06/22 01:10:02;;;;;;;1.60;1.20;;;15.80;99.90;;;;;;5092141;28;20035;-75
2023/06/22 01:12:43;;;;;;;1.40;1.10;;;15.80;99.90;;;;;;5075894;28;20410;-76
2023/06/22 01:15:15;;;;;;;1.52;1.20;;;15.80;99.90;;;;;;5085864;28;20401;-76
2023/06/22 01:17:42;;;;;;;2.35;1.80;;;15.70;99.90;;;;;;5095673;28;20055;-76
2023/06/22 01:20:11;;;;;;;2.35;2.00;;;15.70;99.90;;;;;;5106498;28;20048;-76
2023/06/22 01:23:14;;;;;;;2.83;2.17;;;15.70;99.90;;;;;;5081607;28;20036;-76
2023/06/22 01:26:16;;;;;;;1.38;1.27;;;15.70;99.90;;;;;;5092267;28;20117;-76
2023/06/22 01:28:49;;;;;;;1.70;1.40;;;15.60;99.90;;;;;;5100698;28;20032;-76
2023/06/22 01:31:18;;;;;;;1.98;1.50;;;15.60;99.90;;;;;;5097340;28;20052;-76
2023/06/22 01:33:49;;;;;;;1.65;1.30;;;15.60;99.90;;;;;;5093786;28;20078;-76
2023/06/22 01:36:16;;;;;;;1.67;1.30;;;15.60;99.90;;;;;;5105699;28;20097;-76
2023/06/22 01:38:43;;;;;;;1.55;1.45;;;15.50;99.90;;;;;;5083833;28;20035;-76
2023/06/22 01:41:10;;;;;;;1.35;1.20;;;15.60;99.90;;;;;;5085388;28;20480;-76
2023/06/22 01:43:36;;;;;;;1.10;1.00;;;15.50;99.90;;;;;;5104831;28;20051;-76
2023/06/22 01:46:03;;;;;;;1.30;1.20;;;15.60;99.90;;;;;;5091609;28;20048;-76
2023/06/22 01:48:30;;;;;;;1.40;1.20;;;15.50;99.90;;;;;;5091530;28;20040;-76
2023/06/22 01:50:55;;;;;;;1.65;1.30;;;15.50;99.90;;;;;;5101302;28;20040;-76
2023/06/22 01:53:22;;;;;;;1.58;1.23;;;15.50;99.90;;;;;;5112024;27;20105;-76
2023/06/22 01:55:48;;;;;;;1.70;1.27;;;15.40;99.90;;;;;;5094025;28;20499;-76
2023/06/22 01:58:15;;;;;;;1.40;1.17;;;15.50;99.90;;;;;;5117250;27;20051;-76
2023/06/22 02:00:43;;;;;;;;;;;15.40;99.90;;;;;;5100953;27;20046;-76
2023/06/22 02:03:13;;;;;;;2.42;1.95;;;15.50;99.90;;;;;;5114963;27;19919;-76
2023/06/22 02:06:02;;;;;;;3.13;1.90;;;15.40;99.90;;;;;;5114918;27;20054;-76
2023/06/22 02:08:44;;;;;;;1.90;1.42;;;15.40;99.90;;;;;;5115377;27;20495;-76
2023/06/22 02:11:11;;;;;;;1.40;1.20;;;15.40;99.90;;;;;;5114911;27;20493;-77
2023/06/22 02:13:40;;;;;;;2.13;1.25;;;15.40;99.90;;;;;;5111911;27;20177;-76
2023/06/22 02:16:06;;;;;;;2.45;1.50;;;15.40;99.90;;;;;;5098188;27;20058;-76
2023/06/22 02:18:32;;;;;;;2.00;1.10;;;15.30;99.90;;;;;;5097759;27;20043;-76
2023/06/22 02:20:57;;;;;;;1.95;1.27;;;15.30;99.90;;;;;;5114547;27;20035;-76
2023/06/22 02:23:23;;;;;;;1.70;1.42;;;15.30;99.90;;;;;;5135219;27;20071;-76
2023/06/22 02:25:49;;;;;;;1.98;1.45;;;15.40;99.90;;;;;;5081005;27;20079;-76
2023/06/22 02:28:14;;;;;;;1.23;1.13;;;15.40;99.90;;;;;;5114697;27;20049;-76
2023/06/22 02:30:40;;;;;;;1.42;1.20;;;15.30;99.90;;;;;;5109108;27;20117;-76
2023/06/22 02:33:06;;;;;;;1.40;1.25;;;15.30;99.90;;;;;;5101230;27;20045;-76
2023/06/22 02:35:32;;;;;;;1.73;1.35;;;15.30;99.90;;;;;;5123637;27;20434;-76
2023/06/22 02:38:00;;;;;;;1.23;1.10;;;15.30;99.90;;;;;;5097755;27;20077;-77
2023/06/22 02:40:26;;;;;;;1.23;1.13;;;15.30;99.90;;;;;;5119373;27;20035;-76
2023/06/22 02:42:52;;;;;;;1.77;1.60;;;15.30;99.90;;;;;;5115138;27;20486;-76
2023/06/22 02:45:17;;;;;;;1.70;1.30;;;15.20;99.90;;;;;;5098003;27;20042;-77
2023/06/22 02:47:43;;;;;;;1.33;1.20;;;15.20;99.90;;;;;;5100045;27;20047;-77
2023/06/22 02:50:09;;;;;;;1.90;1.20;;;15.20;99.90;;;;;;5097539;27;20071;-76
2023/06/22 02:52:35;;;;;;;1.63;1.38;;;15.20;99.90;;;;;;5097382;27;20042;-77
2023/06/22 02:55:01;;;;;;;1.48;1.38;;;15.30;99.90;;;;;;5149264;27;20055;-76
2023/06/22 02:57:26;;;;;;;1.83;1.50;;;15.30;99.90;;;;;;5097765;27;20039;-76
2023/06/22 02:59:52;;;;;;;1.70;1.50;;;15.30;99.90;;;;;;5097395;27;20847;-76
2023/06/22 03:02:20;;;;;;;1.35;1.10;;;15.30;99.90;;;;;;5114199;27;20043;-77
2023/06/22 03:04:48;;;;;;;1.52;1.27;;;15.20;99.90;;;;;;5102510;28;20055;-77
2023/06/22 03:07:15;;;;;;;1.50;1.20;;;15.20;99.90;;;;;;5111175;27;20047;-77
2023/06/22 03:09:42;;;;;;;1.48;1.00;;;15.20;99.90;;;;;;5096644;27;20039;-77
2023/06/22 03:12:08;;;;;;;1.38;1.27;;;15.20;99.90;;;;;;5113781;27;20050;-77
2023/06/22 03:14:33;;;;;;;;;;;15.10;99.90;;;;;;5114288;27;20518;-78
2023/06/22 03:17:02;;;;;;;1.50;1.20;;;15.00;99.90;;;;;;5075981;28;19919;-78
2023/06/22 03:19:31;;;;;;;1.40;1.20;;;15.10;99.90;;;;;;5087173;27;20068;-78
2023/06/22 03:21:57;;;;;;;1.65;1.42;;;15.00;99.90;;;;;;5092804;27;20027;-78
2023/06/22 03:24:23;;;;;;;1.50;1.20;;;15.10;99.90;;;;;;5113005;27;20091;-78
2023/06/22 03:26:49;;;;;;;1.48;1.20;;;15.10;99.90;;;;;;5079611;27;20047;-78
2023/06/22 03:29:15;;;;;;;1.40;1.20;;;15.10;99.90;;;;;;5096873;27;20417;-78
2023/06/22 03:31:41;;;;;;;1.15;1.02;;;15.00;99.90;;;;;;5113055;27;20047;-78
2023/06/22 03:34:07;;;;;;;1.23;1.10;;;15.00;99.90;;;;;;5116148;27;20537;-78
2023/06/22 03:36:32;;;;;;;1.60;1.30;;;15.00;99.90;;;;;;5143696;27;20027;-78
2023/06/22 03:38:58;;;;;;;1.42;1.25;;;15.10;99.90;;;;;;5116061;27;20047;-78
2023/06/22 03:41:25;;;;;;;1.52;1.40;;;15.00;99.90;;;;;;5109967;28;20173;-78
2023/06/22 03:43:51;;;;;;;1.50;1.30;;;15.10;99.90;;;;;;5111566;27;20050;-78
2023/06/22 03:46:16;;;;;;;1.67;1.30;;;15.10;99.90;;;;;;5113472;27;20035;-78
2023/06/22 03:48:42;;;;;;;1.73;1.30;;;15.10;99.90;;;;;;5096030;27;20485;-78
2023/06/22 03:51:08;;;;;;;1.20;1.08;;;15.20;99.90;;;;;;5112995;27;20047;-78
2023/06/22 03:53:33;;;;;;;1.10;1.00;;;15.20;99.90;;;;;;5112444;27;20085;-78
2023/06/22 03:55:59;;;;;;;1.10;1.00;;;15.20;99.90;;;;;;5089881;27;20039;-77
2023/06/22 03:58:25;;;;;;;1.50;1.35;;;15.20;99.90;;;;;;5113000;27;20031;-73
2023/06/22 04:00:52;;;;;;;1.67;1.35;;;15.30;99.90;;;;;;5130731;27;20047;-72
2023/06/22 04:03:19;;;;;;;1.90;1.50;;;15.20;99.90;;;;;;5094838;27;20047;-75
2023/06/22 04:05:45;;;;;;;2.83;2.38;;;15.30;99.90;;;;;;5113101;28;20047;-75
2023/06/22 04:08:12;;;;;;;2.40;2.00;;;15.40;99.90;;;;;;5095791;27;20043;-75
2023/06/22 04:10:37;;;;;;;1.80;1.60;;;15.40;99.90;;;;;;5090962;27;20043;-69
2023/06/22 04:13:03;;;;;;;2.00;1.60;;;15.40;99.90;;;;;;5112583;28;20037;-70
2023/06/22 04:15:29;;;;;;;1.90;1.40;;;15.40;99.90;;;;;;5093733;27;20039;-69
2023/06/22 04:17:56;;;;;;;1.60;1.40;;;15.50;99.90;;;;;;5129691;27;20030;-69
2023/06/22 04:20:26;;;;;;;1.95;1.27;;;15.60;99.90;;;;;;5106460;27;20046;-69
2023/06/22 04:22:55;;;;;;;1.27;1.17;;;15.60;99.90;;;;;;5102098;27;20045;-69
2023/06/22 04:25:22;;;;;;;1.63;1.40;;;15.70;99.90;;;;;;5116114;27;20066;-70
2023/06/22 04:27:48;;;;;;;1.80;1.23;;;15.60;99.90;;;;;;5115334;27;20043;-70
2023/06/22 04:30:16;;;;;;;1.35;1.25;;;15.80;99.90;;;;;;5140857;27;20043;-76
2023/06/22 04:32:43;;;;;;;1.63;1.30;;;15.80;99.90;;;;;;5112787;27;20062;-77
2023/06/22 04:35:09;;;;;;;1.55;1.45;;;15.80;99.90;;;;;;5104123;27;20485;-77
2023/06/22 04:37:35;;;;;;;2.28;1.67;;;16.00;99.90;;;;;;5115718;27;20043;-77
2023/06/22 04:40:01;;;;;;;2.00;1.80;;;16.00;99.90;;;;;;5136525;27;20118;-77
2023/06/22 04:42:27;;;;;;;1.67;1.40;;;15.90;99.90;;;;;;5147428;27;20039;-77
2023/06/22 04:44:53;;;;;;;1.40;1.20;;;16.00;99.90;;;;;;5099008;27;20050;-77
2023/06/22 04:47:18;;;;;;;1.88;1.50;;;16.00;99.90;;;;;;5082598;28;20043;-76
2023/06/22 04:49:44;;;;;;;1.40;1.20;;;16.00;99.90;;;;;;5125447;27;20096;-77
2023/06/22 04:52:11;;;;;;;1.60;1.27;;;16.20;99.90;;;;;;5112630;28;20043;-76
2023/06/22 04:54:40;;;;;;;1.30;1.20;;;16.10;99.90;;;;;;5112340;27;20051;-76
2023/06/22 04:57:10;;;;;;;1.10;1.00;;;16.20;99.90;;;;;;5114935;27;20043;-76
2023/06/22 04:59:38;;;;;;;1.70;1.30;;;16.40;99.90;;;;;;5109210;27;20058;-77
2023/06/22 05:02:05;;;;;;;1.50;1.17;;;16.40;99.90;;;;;;5104429;27;20031;-78
2023/06/22 05:04:32;;;;;;;1.65;1.30;;;16.40;99.90;;;;;;5092211;27;20046;-78
2023/06/22 05:06:59;;;;;;;1.70;1.23;;;16.60;99.90;;;;;;5084373;28;20035;-78
2023/06/22 05:09:25;;;;;;;2.55;1.83;;;16.60;99.90;;;;;;5098299;27;20122;-77
2023/06/22 05:11:51;;;;;;;;;;;16.70;99.90;;;;;;5085844;27;20036;-77
2023/06/22 05:14:18;;;;;;;3.15;2.13;;;16.80;99.90;;;;;;5114078;27;19934;-80
2023/06/22 05:16:45;;;;;;;2.00;1.80;;;16.90;99.90;;;;;;5131083;27;20039;-80
2023/06/22 05:19:11;;;;;;;3.03;1.90;;;17.10;99.90;;;;;;5097488;27;20130;-81
2023/06/22 05:21:37;;;;;;;2.03;1.83;;;17.10;99.90;;;;;;5101146;27;20416;-80
2023/06/22 05:24:04;;;;;;;2.10;1.80;;;17.20;99.90;;;;;;5098143;27;20046;-80
2023/06/22 05:26:30;;;;;;;;;;;17.30;99.90;;;;;;5116475;27;20054;-77
2023/06/22 05:28:56;;;;;;;8.50;5.40;;;17.30;99.90;;;;;;5119330;27;19926;-77
2023/06/22 05:31:22;;;;;;;3.80;3.35;;;17.40;99.90;;;;;;5110317;27;20043;-77
2023/06/22 05:33:49;;;;;;;;;;;17.60;99.90;;;;;;5114089;27;20616;-77
2023/06/22 05:36:15;;;;;;;3.55;2.65;;;17.70;99.90;;;;;;5111377;27;19926;-77
2023/06/22 05:38:41;;;;;;;2.65;2.20;;;17.70;99.90;;;;;;5091171;27;20104;-76
2023/06/22 05:41:07;;;;;;;3.33;2.20;;;17.70;99.90;;;;;;5110951;27;20060;-76
2023/06/22 05:43:33;;;;;;;2.90;2.17;;;17.90;99.90;;;;;;5115931;27;20406;-77
2023/06/22 05:46:00;;;;;;;;;;;17.90;99.90;;;;;;5080695;27;20043;-78
2023/06/22 05:48:26;;;;;;;5.85;3.97;;;18.10;99.90;;;;;;5143871;27;20339;-76
2023/06/22 05:50:52;;;;;;;;;;;18.20;99.90;;;;;;5107000;28;20052;-77
2023/06/22 05:53:18;;;;;;;3.75;2.30;;;18.20;99.90;;;;;;5109562;27;19998;-78
2023/06/22 05:55:43;;;;;;;;;;;18.30;99.90;;;;;;5109971;28;20043;-78
2023/06/22 05:58:09;;;;;;;1.88;1.67;;;18.40;99.90;;;;;;5081800;27;20324;-78
2023/06/22 06:00:35;;;;;;;;;;;18.50;99.90;;;;;;5089289;27;20542;-79
2023/06/22 06:03:04;;;;;;;2.90;2.60;;;18.60;99.90;;;;;;5105891;27;19915;-78
2023/06/22 06:05:36;;;;;;;2.53;2.10;;;18.70;99.90;;;;;;5097161;27;20132;-78
2023/06/22 06:08:04;;;;;;;2.97;1.75;;;18.80;99.90;;;;;;5114356;27;20039;-79
2023/06/22 06:10:31;;;;;;;3.55;1.88;;;18.90;99.90;;;;;;5114754;27;20393;-79
2023/06/22 06:12:57;;;;;;;1.85;1.65;;;19.00;99.90;;;;;;5113070;27;20038;-78
2023/06/22 06:15:24;;;;;;;3.28;2.83;;;19.20;99.90;;;;;;5114425;27;20044;-79
2023/06/22 06:17:53;;;;;;;3.42;2.80;;;19.30;99.90;;;;;;5133335;27;20136;-79
2023/06/22 06:20:21;;;;;;;9.00;3.58;;;19.50;99.90;;;;;;5115065;27;20039;-79
2023/06/22 06:22:47;;;;;;;5.05;3.35;;;19.60;99.90;;;;;;5098024;27;20065;-79
2023/06/22 06:25:16;;;;;;;3.33;2.92;;;19.70;99.90;;;;;;5114378;27;20062;-79
2023/06/22 06:27:43;;;;;;;5.13;4.10;;;19.70;99.90;;;;;;5097728;27;20035;-79
2023/06/22 06:30:11;;;;;;;5.50;3.85;;;19.80;99.90;;;;;;5114619;27;20047;-80
2023/06/22 06:32:37;;;;;;;3.40;2.90;;;19.80;99.90;;;;;;5114932;27;20039;-79
2023/06/22 06:35:05;;;;;;;3.22;2.92;;;19.80;99.90;;;;;;5097662;27;20093;-80
2023/06/22 06:37:30;;;;;;;6.90;4.93;;;19.90;99.90;;;;;;5098265;27;20057;-79
2023/06/22 06:39:56;;;;;;;4.43;3.30;;;19.90;99.90;;;;;;5114748;27;20394;-80
2023/06/22 06:42:24;;;;;;;3.28;2.92;;;20.00;99.90;;;;;;5097607;27;20043;-79
2023/06/22 06:44:49;;;;;;;5.00;4.18;;;20.10;99.90;;;;;;5114819;27;20051;-80
2023/06/22 06:47:16;;;;;;;4.15;3.20;;;20.20;99.90;;;;;;5114094;27;20397;-80
2023/06/22 06:49:43;;;;;;;3.63;3.20;;;20.30;99.90;;;;;;5114615;27;20448;-80
2023/06/22 06:52:09;;;;;;;3.38;2.88;;;20.50;1.00;;;;;;5148608;27;20043;-80
2023/06/22 06:54:35;;;;;;;2.50;2.30;;;20.60;99.90;;;;;;5097048;27;20126;-81
2023/06/22 06:57:07;;;;;;;2.90;2.47;;;20.70;99.90;;;;;;5132882;27;20046;-81
2023/06/22 06:59:33;;;;;;;2.47;2.17;;;20.80;36.70;;;;;;5148688;27;20035;-81
2023/06/22 07:01:58;;;;;;;2.70;2.38;;;20.90;62.10;;;;;;5097178;27;20435;-81
2023/06/22 07:04:24;;;;;;;2.67;2.35;;;20.90;81.80;;;;;;5113886;27;20171;-80
2023/06/22 07:06:50;;;;;;;3.10;2.50;;;21.00;6.20;;;;;;5097054;27;20158;-80
2023/06/22 07:09:15;;;;;;;2.15;1.80;;;21.00;99.90;;;;;;5097199;27;20050;-80
2023/06/22 07:11:41;;;;;;;2.53;1.90;;;21.10;99.90;;;;;;5113917;27;20066;-80
2023/06/22 07:14:07;;;;;;;4.38;3.97;;;21.30;1.00;;;;;;5096839;27;20039;-80
2023/06/22 07:16:32;;;;;;;4.30;3.55;;;21.40;99.90;;;;;;5148263;27;20043;-80
2023/06/22 07:18:58;;;;;;;5.78;4.40;;;21.50;99.90;;;;;;5096783;27;20110;-80
2023/06/22 07:21:24;;;;;;;5.78;3.83;;;21.60;99.90;;;;;;5080141;27;20031;-80
2023/06/22 07:23:52;;;;;;;2.95;2.58;;;21.70;1.00;;;;;;5096243;27;20043;-80
2023/06/22 07:26:18;;;;;;;3.13;2.63;;;21.80;1.00;;;;;;5113964;27;20047;-80
2023/06/22 07:28:44;;;;;;;3.55;2.60;;;22.00;1.00;;;;;;5079670;27;20469;-80
2023/06/22 07:31:09;;;;;;;2.10;1.90;;;22.10;99.90;;;;;;5113803;27;20046;-80
2023/06/22 07:33:35;;;;;;;3.13;2.80;;;22.20;1.00;;;;;;5096360;27;20046;-80
2023/06/22 07:36:02;;;;;;;4.18;3.03;;;22.20;99.90;;;;;;5096351;27;20039;-80
2023/06/22 07:38:28;;;;;;;3.03;2.25;;;22.20;1.00;;;;;;5113502;27;20059;-80
2023/06/22 07:40:54;;;;;;;3.22;2.67;;;22.20;99.90;;;;;;5096578;27;20132;-80
2023/06/22 07:43:19;;;;;;;2.67;2.33;;;22.30;38.00;;;;;;5147766;27;20542;-80
2023/06/22 07:45:55;;;;;;;2.67;2.20;;;22.40;99.90;;;;;;5113352;27;20119;-80
2023/06/22 07:48:22;;;;;;;4.82;3.13;;;22.50;99.90;;;;;;5097017;27;20055;-80
2023/06/22 07:50:48;;;;;;;4.18;3.15;;;22.50;99.90;;;;;;5113305;27;20102;-80
2023/06/22 07:53:14;;;;;;;3.78;2.97;;;22.60;99.90;;;;;;5113325;27;20070;-80
2023/06/22 07:55:39;;;;;;;2.60;2.15;;;22.80;1.00;;;;;;5147405;27;20078;-80
2023/06/22 07:58:05;;;;;;;2.70;2.30;;;22.90;99.90;;;;;;5078507;27;20130;-80
2023/06/22 08:00:32;;;;;;;2.58;2.30;;;23.00;99.90;;;;;;5079392;27;20047;-80
2023/06/22 08:02:58;;;;;;;3.45;2.47;;;23.20;76.00;;;;;;5113333;27;20160;-80
2023/06/22 08:05:24;;;;;;;2.40;2.20;;;23.20;99.90;;;;;;5079196;27;20498;-79
2023/06/22 08:07:50;;;;;;;2.47;2.03;;;23.40;99.90;;;;;;5113025;27;20066;-80
2023/06/22 08:10:16;;;;;;;1.85;1.60;;;23.50;99.90;;;;;;5095804;27;20047;-80
2023/06/22 08:12:42;;;;;;;2.58;1.80;;;23.60;99.90;;;;;;5113525;28;20047;-80
2023/06/22 08:15:08;;;;;;;3.17;1.80;;;23.70;99.90;;;;;;5112866;28;20415;-80
2023/06/22 08:17:34;;;;;;;1.52;1.30;;;23.70;66.00;;;;;;5112822;28;20043;-80
2023/06/22 08:19:59;;;;;;;2.40;2.00;;;23.70;99.90;;;;;;5112985;28;20053;-80
2023/06/22 08:22:25;;;;;;;2.13;1.90;;;23.70;1.00;;;;;;5096159;28;20312;-80
2023/06/22 08:24:51;;;;;;;2.15;1.60;;;23.60;99.90;;;;;;5095316;28;20483;-80
2023/06/22 08:27:18;;;;;;;2.13;1.35;;;23.70;99.90;;;;;;5095874;28;20125;-79
2023/06/22 08:29:45;;;;;;;2.58;1.75;;;23.80;99.90;;;;;;5129716;28;20100;-80
2023/06/22 08:32:12;;;;;;;2.03;1.60;;;23.90;99.90;;;;;;5095661;27;20552;-80
2023/06/22 08:34:42;;;;;;;2.90;2.25;;;24.00;99.90;;;;;;5095570;28;20050;-80
2023/06/22 08:37:08;;;;;;;4.10;3.00;;;24.10;99.90;;;;;;5112697;28;20047;-80
2023/06/22 08:39:34;;;;;;;2.00;1.80;;;23.90;40.80;;;;;;5078838;28;20367;-80
2023/06/22 08:42:00;;;;;;;2.33;1.70;;;24.10;99.90;;;;;;5112909;28;20043;-79
2023/06/22 08:44:26;;;;;;;2.95;2.05;;;24.30;99.90;;;;;;5095297;28;20451;-79
2023/06/22 08:46:51;;;;;;;2.85;1.90;;;24.40;99.90;;;;;;5112391;28;20100;-79
2023/06/22 08:49:17;;;;;;;2.65;2.00;;;24.50;99.90;;;;;;5095549;28;20042;-79
2023/06/22 08:51:45;;;;;;;3.25;2.15;;;24.60;1.00;;;;;;5146933;27;20478;-79
2023/06/22 08:54:12;;;;;;;2.28;1.80;;;24.80;99.90;;;;;;5078892;28;20151;-79
2023/06/22 08:56:37;;;;;;;1.60;1.30;;;24.80;99.90;;;;;;5112364;28;20486;-79
2023/06/22 08:59:03;;;;;;;3.55;1.60;;;24.90;25.20;;;;;;5078438;28;20046;-80
2023/06/22 09:01:29;;;;;;;2.00;1.38;;;25.10;99.90;;;;;;5078470;28;20046;-79
2023/06/22 09:03:55;;;;;;;1.85;1.60;;;25.30;99.90;;;;;;5095193;28;20039;-79
2023/06/22 09:06:21;;;;;;;2.22;1.60;;;25.30;1.00;;;;;;5095558;28;20791;-79
2023/06/22 09:08:47;;;;;;;1.92;1.20;;;25.30;99.90;;;;;;5095198;27;20043;-79
2023/06/22 09:11:13;;;;;;;1.75;1.40;;;25.50;99.90;;;;;;5115879;27;20088;-79
2023/06/22 09:13:39;;;;;;;1.85;1.60;;;25.70;99.90;;;;;;5150117;27;20039;-79
2023/06/22 09:16:05;;;;;;;2.38;1.73;;;25.90;99.90;;;;;;5098878;27;20050;-79
2023/06/22 09:18:30;;;;;;;2.10;1.65;;;25.70;99.90;;;;;;5098980;27;20035;-79
2023/06/22 09:20:56;;;;;;;2.63;2.35;;;25.90;99.90;;;;;;5133360;27;20043;-79
2023/06/22 09:23:22;;;;;;;2.40;2.08;;;25.90;1.00;;;;;;5150492;27;20057;-78
2023/06/22 09:25:48;;;;;;;1.42;1.33;;;25.90;99.90;;;;;;5116410;27;20043;-80
2023/06/22 09:28:14;;;;;;;1.73;1.40;;;26.10;99.90;;;;;;5116108;27;20486;-79
2023/06/22 09:30:40;;;;;;;2.00;1.73;;;26.30;99.90;;;;;;5116122;27;20535;-78
2023/06/22 09:33:06;;;;;;;1.65;1.40;;;26.30;99.90;;;;;;5116407;27;20043;-79
2023/06/22 09:35:32;;;;;;;3.00;2.00;;;26.50;99.90;;;;;;5116047;27;20035;-79
2023/06/22 09:37:57;;;;;;;2.60;1.90;;;26.40;99.90;;;;;;5099890;27;20082;-79
2023/06/22 09:40:23;;;;;;;2.20;1.67;;;26.50;99.90;;;;;;5116302;27;20074;-80
2023/06/22 09:42:49;;;;;;;1.60;1.50;;;26.60;99.90;;;;;;5116414;27;20474;-79
2023/06/22 09:45:14;;;;;;;1.63;1.50;;;26.80;99.90;;;;;;5099104;27;20502;-79
2023/06/22 09:47:41;;;;;;;2.00;1.40;;;26.90;99.90;;;;;;5099186;27;20133;-79
2023/06/22 09:50:07;;;;;;;1.92;1.52;;;27.00;99.90;;;;;;5116076;27;20062;-78
2023/06/22 09:52:33;;;;;;;2.03;1.60;;;26.80;99.90;;;;;;5115768;27;20047;-81
2023/06/22 09:54:59;;;;;;;1.55;1.40;;;26.70;99.90;;;;;;5115323;27;20063;-79
2023/06/22 09:57:24;;;;;;;2.28;1.50;;;27.00;99.90;;;;;;5115560;27;20096;-79
2023/06/22 09:59:50;;;;;;;3.22;1.23;;;26.90;99.90;;;;;;5098584;27;20031;-79
2023/06/22 10:02:17;;;;;;;1.65;1.48;;;26.60;99.90;;;;;;5115525;27;20083;-79
2023/06/22 10:04:42;;;;;;;4.38;2.25;;;26.70;99.90;;;;;;5115671;27;20103;-80
2023/06/22 10:07:08;;;;;;;1.50;1.40;;;26.60;1.00;;;;;;5149851;27;20472;-79
2023/06/22 10:09:34;;;;;;;2.15;1.33;;;26.60;99.90;;;;;;5098412;27;20082;-79
2023/06/22 10:11:59;;;;;;;2.25;1.40;;;26.70;99.90;;;;;;5098762;27;20050;-79
2023/06/22 10:14:27;;;;;;;2.30;1.70;;;26.80;99.90;;;;;;5115258;27;20043;-79
2023/06/22 10:16:53;;;;;;;2.40;2.03;;;26.50;99.90;;;;;;5098659;27;20343;-79
2023/06/22 10:19:19;;;;;;;2.05;1.80;;;26.20;1.00;;;;;;5098150;27;20462;-80
2023/06/22 10:21:44;;;;;;;2.35;1.60;;;25.90;99.90;;;;;;5114380;27;20134;-80
2023/06/22 10:24:10;;;;;;;3.30;2.50;;;25.80;99.90;;;;;;5098003;27;20039;-80
2023/06/22 10:26:36;;;;;;;2.97;1.88;;;25.70;1.00;;;;;;5097899;27;20043;-79
2023/06/22 10:29:03;;;;;;;2.38;2.15;;;25.60;99.90;;;;;;5132268;27;20054;-80
2023/06/22 10:31:29;;;;;;;2.33;1.70;;;25.60;99.90;;;;;;5114777;27;20043;-79
2023/06/22 10:33:55;;;;;;;2.30;2.10;;;25.80;99.90;;;;;;5114635;27;20045;-80
2023/06/22 10:36:22;;;;;;;3.20;2.80;;;26.20;1.00;;;;;;5097867;27;20489;-79
2023/06/22 10:38:48;;;;;;;5.13;3.13;;;26.40;1.00;;;;;;5097981;27;20442;-80
2023/06/22 10:41:14;;;;;;;2.53;1.90;;;26.30;99.90;;;;;;5114795;27;20176;-79
2023/06/22 10:43:40;;;;;;;1.80;1.70;;;26.40;99.90;;;;;;5097888;27;20414;-78
2023/06/22 10:46:07;;;;;;;1.95;1.60;;;26.30;99.90;;;;;;5148925;27;20058;-79
2023/06/22 10:48:32;;;;;;;2.53;2.28;;;26.60;99.90;;;;;;5097479;27;20047;-79
2023/06/22 10:50:58;;;;;;;3.38;2.15;;;27.00;99.90;;;;;;5081034;27;20070;-79
2023/06/22 10:53:24;;;;;;;1.92;1.65;;;27.30;99.90;;;;;;5114299;27;20486;-78
2023/06/22 10:55:53;;;;;;;1.60;1.50;;;27.40;99.90;;;;;;5148418;27;20047;-79
2023/06/22 10:58:19;;;;;;;2.30;1.80;;;27.70;99.90;;;;;;5131467;27;20047;-78
2023/06/22 11:00:45;;;;;;;2.42;1.90;;;27.90;92.90;;;;;;5097536;27;20141;-78
2023/06/22 11:03:11;;;;;;;2.67;2.08;;;28.10;99.90;;;;;;5114554;27;20533;-78
2023/06/22 11:05:37;;;;;;;3.35;2.08;;;27.90;62.20;;;;;;5114513;27;20046;-79
2023/06/22 11:08:03;;;;;;;2.05;1.70;;;27.60;95.70;;;;;;5097224;27;20384;-79
2023/06/22 11:10:29;;;;;;;2.28;1.80;;;27.70;69.30;;;;;;5114132;27;20043;-78
2023/06/22 11:12:56;;;;;;;2.28;1.70;;;27.90;47.00;;;;;;5149100;27;20058;-79
2023/06/22 11:15:21;;;;;;;2.15;1.30;;;28.00;30.80;;;;;;5113960;27;20047;-78
2023/06/22 11:17:47;;;;;;;2.05;1.50;;;28.20;58.50;;;;;;5148460;27;20491;-78
2023/06/22 11:20:13;;;;;;;1.60;1.27;;;28.40;19.30;;;;;;5148604;27;20047;-79
2023/06/22 11:22:40;;;;;;;2.63;1.65;;;28.50;1.00;;;;;;5114163;27;20398;-78
2023/06/22 11:25:06;;;;;;;1.58;1.48;;;28.50;1.00;;;;;;5096545;27;20131;-78
2023/06/22 11:27:32;;;;;;;2.38;1.60;;;28.50;1.00;;;;;;5130991;27;20050;-78
2023/06/22 11:29:58;;;;;;;3.88;2.88;;;28.40;99.90;;;;;;5080069;27;20066;-79
2023/06/22 11:32:24;;;;;;;3.60;2.13;;;27.90;28.40;;;;;;5131172;27;20122;-79
2023/06/22 11:34:50;;;;;;;2.33;1.90;;;27.60;41.90;;;;;;5113852;27;20043;-79
2023/06/22 11:37:15;;;;;;;2.78;2.25;;;27.40;76.40;;;;;;5096829;27;20050;-80
2023/06/22 11:39:42;;;;;;;2.10;1.50;;;27.30;99.90;;;;;;5080292;27;20115;-79
2023/06/22 11:42:08;;;;;;;2.08;1.70;;;27.30;99.20;;;;;;5114091;27;20050;-79
2023/06/22 11:44:34;;;;;;;1.40;1.17;;;27.30;57.50;;;;;;5113503;27;20058;-79
2023/06/22 11:47:01;;;;;;;1.40;1.30;;;27.50;36.20;;;;;;5096723;27;20047;-79
2023/06/22 11:49:31;;;;;;;1.98;1.67;;;27.60;28.30;;;;;;5130990;27;20046;-79
2023/06/22 11:51:57;;;;;;;1.92;1.63;;;27.60;69.80;;;;;;5113523;27;20602;-79
2023/06/22 11:54:22;;;;;;;2.03;1.52;;;27.50;91.00;;;;;;5147407;27;20063;-79
2023/06/22 11:56:48;;;;;;;1.98;1.40;;;27.40;83.60;;;;;;5148142;27;20047;-79
2023/06/22 11:59:14;;;;;;;3.30;2.20;;;27.30;39.20;;;;;;5147576;27;20057;-79
2023/06/22 12:01:40;;;;;;;2.08;1.60;;;27.10;94.10;;;;;;5130650;27;20043;-80
2023/06/22 12:04:05;;;;;;;3.55;2.30;;;27.00;99.90;;;;;;5147624;27;20084;-79
2023/06/22 12:06:33;;;;;;;3.00;2.63;;;27.00;99.90;;;;;;5096669;28;20047;-79
2023/06/22 12:08:59;;;;;;;2.33;1.65;;;26.60;99.90;;;;;;5097031;27;20070;-79
2023/06/22 12:11:24;;;;;;;3.95;2.83;;;26.50;99.90;;;;;;5079625;27;20486;-80
2023/06/22 12:13:50;;;;;;;3.47;2.75;;;26.20;99.90;;;;;;5096271;28;20043;-79
2023/06/22 12:16:17;;;;;;;2.88;1.63;;;26.20;99.90;;;;;;5096209;28;20031;-80
2023/06/22 12:18:42;;;;;;;4.07;3.30;;;26.20;99.90;;;;;;5096214;28;20126;-79
2023/06/22 12:21:08;;;;;;;4.10;3.08;;;26.30;99.90;;;;;;5112893;28;20122;-79
2023/06/22 12:23:34;;;;;;;1.50;1.38;;;26.10;99.90;;;;;;5113373;28;20122;-80
2023/06/22 12:26:01;;;;;;;1.90;1.70;;;26.20;99.90;;;;;;5096118;28;20454;-80
2023/06/22 12:28:27;;;;;;;1.80;1.35;;;26.20;99.90;;;;;;5113027;28;20062;-80
2023/06/22 12:30:52;;;;;;;2.40;1.33;;;26.30;99.90;;;;;;5096084;28;20039;-80
2023/06/22 12:33:18;;;;;;;2.83;1.77;;;26.40;99.90;;;;;;5096293;28;20081;-80
2023/06/22 12:35:45;;;;;;;2.53;1.80;;;26.20;99.90;;;;;;5113142;27;20466;-80
2023/06/22 12:38:11;;;;;;;1.63;1.52;;;26.10;99.90;;;;;;5113109;28;20039;-80
2023/06/22 12:40:36;;;;;;;1.67;1.40;;;26.10;99.90;;;;;;5113144;28;20035;-80
2023/06/22 12:43:02;;;;;;;3.03;2.25;;;26.10;99.90;;;;;;5147313;27;20035;-80
2023/06/22 12:45:31;;;;;;;3.85;1.83;;;26.00;99.90;;;;;;5116167;27;20050;-80
2023/06/22 12:47:57;;;;;;;2.38;1.90;;;25.90;99.90;;;;;;5102105;28;20050;-80